EDDK/CGN METAR and TAF weather

Enter ICAO airport designator
Station Type Date Time Source
EDDK METAR 2022/06/28 14:50 UTC NOAA

EDDK 281450Z AUTO 14004KT 060V230 CAVOK 25/10 Q1019 NOSIG


Station Type Date Time Source
EDDK Decoded METAR 2022/06/28 14:50 UTC NOAA

Koeln / Bonn, Germany (EDDK) 50-52N 007-10E 100M
Jun 28, 2022 - 10:50 AM EDT / 2022.06.28 1450 UTC
Wind: from the SE (140 degrees) at 5 MPH (4 KT) (direction variable):0
Visibility: greater than 7 mile(s):0
Temperature: 77 F (25 C)
Dew Point: 50 F (10 C)
Relative Humidity: 38%
Pressure (altimeter): 30.09 in. Hg (1019 hPa)
ob: EDDK 281450Z AUTO 14004KT 060V230 CAVOK 25/10 Q1019 NOSIG
cycle: 15

Station Type Date Time Source
EDDK TAF 2022/06/28 12:27 UTC NOAA

TAF EDDK 281100Z 2812/2918 VRB03KT 9999 FEW035
TEMPO 2816/2823 06005KT
BECMG 2822/2824 13005KT

Example: see airport list